sensor_id;sensor_type;location;lat;lon;timestamp;P1;durP1;ratioP1;P2;durP2;ratioP2
76745;SDS011;65671;49.976;20.038;2023-05-07T00:02:02;19.02;;;12.35;;
76745;SDS011;65671;49.976;20.038;2023-05-07T00:04:29;19.10;;;12.85;;
76745;SDS011;65671;49.976;20.038;2023-05-07T00:07:01;19.85;;;12.57;;
76745;SDS011;65671;49.976;20.038;2023-05-07T00:09:26;18.48;;;12.18;;
76745;SDS011;65671;49.976;20.038;2023-05-07T00:11:52;19.73;;;13.73;;
76745;SDS011;65671;49.976;20.038;2023-05-07T00:14:18;20.58;;;13.48;;
76745;SDS011;65671;49.976;20.038;2023-05-07T00:16:43;20.17;;;13.38;;
76745;SDS011;65671;49.976;20.038;2023-05-07T00:19:09;17.88;;;12.13;;
76745;SDS011;65671;49.976;20.038;2023-05-07T00:21:34;21.40;;;14.20;;
76745;SDS011;65671;49.976;20.038;2023-05-07T00:24:00;22.17;;;14.35;;
76745;SDS011;65671;49.976;20.038;2023-05-07T00:26:25;19.50;;;13.30;;
76745;SDS011;65671;49.976;20.038;2023-05-07T00:28:51;20.17;;;13.13;;
76745;SDS011;65671;49.976;20.038;2023-05-07T00:31:16;21.08;;;13.95;;
76745;SDS011;65671;49.976;20.038;2023-05-07T00:33:42;21.45;;;13.55;;
76745;SDS011;65671;49.976;20.038;2023-05-07T00:36:07;19.88;;;13.65;;
76745;SDS011;65671;49.976;20.038;2023-05-07T00:38:33;24.88;;;15.43;;
76745;SDS011;65671;49.976;20.038;2023-05-07T00:40:59;26.00;;;14.93;;
76745;SDS011;65671;49.976;20.038;2023-05-07T00:43:24;20.35;;;12.80;;
76745;SDS011;65671;49.976;20.038;2023-05-07T00:45:50;24.92;;;14.50;;
76745;SDS011;65671;49.976;20.038;2023-05-07T00:48:16;25.42;;;14.57;;
76745;SDS011;65671;49.976;20.038;2023-05-07T00:50:42;24.65;;;14.95;;
76745;SDS011;65671;49.976;20.038;2023-05-07T00:53:08;27.17;;;14.00;;
76745;SDS011;65671;49.976;20.038;2023-05-07T00:55:35;27.17;;;14.63;;
76745;SDS011;65671;49.976;20.038;2023-05-07T00:58:01;27.80;;;14.60;;
76745;SDS011;65671;49.976;20.038;2023-05-07T01:00:27;24.30;;;14.48;;
76745;SDS011;65671;49.976;20.038;2023-05-07T01:02:53;23.90;;;15.23;;
76745;SDS011;65671;49.976;20.038;2023-05-07T01:05:18;27.40;;;15.25;;
76745;SDS011;65671;49.976;20.038;2023-05-07T01:07:47;26.33;;;13.15;;
76745;SDS011;65671;49.976;20.038;2023-05-07T01:10:15;25.30;;;13.13;;
76745;SDS011;65671;49.976;20.038;2023-05-07T01:12:42;24.60;;;13.98;;
76745;SDS011;65671;49.976;20.038;2023-05-07T01:15:09;22.15;;;14.02;;
76745;SDS011;65671;49.976;20.038;2023-05-07T01:17:35;22.38;;;13.68;;
76745;SDS011;65671;49.976;20.038;2023-05-07T01:20:02;31.10;;;13.68;;
76745;SDS011;65671;49.976;20.038;2023-05-07T01:22:31;24.33;;;12.93;;
76745;SDS011;65671;49.976;20.038;2023-05-07T01:24:59;22.25;;;13.80;;
76745;SDS011;65671;49.976;20.038;2023-05-07T01:27:27;25.85;;;13.60;;
76745;SDS011;65671;49.976;20.038;2023-05-07T01:29:53;18.70;;;12.38;;
76745;SDS011;65671;49.976;20.038;2023-05-07T01:32:20;21.88;;;12.68;;
76745;SDS011;65671;49.976;20.038;2023-05-07T01:34:50;24.45;;;12.55;;
76745;SDS011;65671;49.976;20.038;2023-05-07T01:37:17;20.27;;;12.60;;
76745;SDS011;65671;49.976;20.038;2023-05-07T01:39:43;20.73;;;12.57;;
76745;SDS011;65671;49.976;20.038;2023-05-07T01:42:09;20.52;;;11.63;;
76745;SDS011;65671;49.976;20.038;2023-05-07T01:44:35;22.52;;;12.65;;
76745;SDS011;65671;49.976;20.038;2023-05-07T01:47:01;20.55;;;11.90;;
76745;SDS011;65671;49.976;20.038;2023-05-07T01:49:27;20.48;;;11.88;;
76745;SDS011;65671;49.976;20.038;2023-05-07T01:51:54;21.63;;;11.82;;
76745;SDS011;65671;49.976;20.038;2023-05-07T01:54:24;21.35;;;12.45;;
76745;SDS011;65671;49.976;20.038;2023-05-07T01:56:55;22.38;;;13.55;;
76745;SDS011;65671;49.976;20.038;2023-05-07T01:59:22;26.38;;;13.40;;
76745;SDS011;65671;49.976;20.038;2023-05-07T02:01:47;29.88;;;14.13;;
76745;SDS011;65671;49.976;20.038;2023-05-07T02:04:13;24.85;;;13.48;;
76745;SDS011;65671;49.976;20.038;2023-05-07T02:06:38;22.38;;;13.82;;
76745;SDS011;65671;49.976;20.038;2023-05-07T02:09:04;23.98;;;13.30;;
76745;SDS011;65671;49.976;20.038;2023-05-07T02:11:30;25.60;;;13.73;;
76745;SDS011;65671;49.976;20.038;2023-05-07T02:13:55;22.58;;;13.63;;
76745;SDS011;65671;49.976;20.038;2023-05-07T02:16:21;25.73;;;13.55;;
76745;SDS011;65671;49.976;20.038;2023-05-07T02:18:48;26.58;;;12.88;;
76745;SDS011;65671;49.976;20.038;2023-05-07T02:21:13;31.25;;;15.20;;
76745;SDS011;65671;49.976;20.038;2023-05-07T02:23:39;27.40;;;15.13;;
76745;SDS011;65671;49.976;20.038;2023-05-07T02:26:04;28.33;;;15.45;;
76745;SDS011;65671;49.976;20.038;2023-05-07T02:28:30;26.98;;;14.52;;
76745;SDS011;65671;49.976;20.038;2023-05-07T02:30:55;25.88;;;14.48;;
76745;SDS011;65671;49.976;20.038;2023-05-07T02:33:23;35.53;;;15.77;;
76745;SDS011;65671;49.976;20.038;2023-05-07T02:35:49;32.80;;;16.02;;
76745;SDS011;65671;49.976;20.038;2023-05-07T02:38:16;31.55;;;17.27;;
76745;SDS011;65671;49.976;20.038;2023-05-07T02:40:43;35.60;;;16.45;;
76745;SDS011;65671;49.976;20.038;2023-05-07T02:43:08;29.55;;;16.23;;
76745;SDS011;65671;49.976;20.038;2023-05-07T02:45:34;33.13;;;15.45;;
76745;SDS011;65671;49.976;20.038;2023-05-07T02:48:01;31.98;;;15.35;;
76745;SDS011;65671;49.976;20.038;2023-05-07T02:50:26;29.33;;;15.02;;
76745;SDS011;65671;49.976;20.038;2023-05-07T02:52:52;26.33;;;14.50;;
76745;SDS011;65671;49.976;20.038;2023-05-07T02:55:17;28.45;;;15.02;;
76745;SDS011;65671;49.976;20.038;2023-05-07T02:57:43;25.55;;;13.88;;
76745;SDS011;65671;49.976;20.038;2023-05-07T03:02:39;20.30;;;11.65;;
76745;SDS011;65671;49.976;20.038;2023-05-07T03:05:05;24.13;;;12.43;;
76745;SDS011;65671;49.976;20.038;2023-05-07T03:07:31;21.92;;;12.30;;
76745;SDS011;65671;49.976;20.038;2023-05-07T03:09:56;25.17;;;13.20;;
76745;SDS011;65671;49.976;20.038;2023-05-07T03:12:22;23.30;;;12.57;;
76745;SDS011;65671;49.976;20.038;2023-05-07T03:14:47;22.45;;;12.70;;
76745;SDS011;65671;49.976;20.038;2023-05-07T03:17:13;22.83;;;11.43;;
76745;SDS011;65671;49.976;20.038;2023-05-07T03:19:38;22.25;;;12.45;;
76745;SDS011;65671;49.976;20.038;2023-05-07T03:22:04;24.92;;;12.55;;
76745;SDS011;65671;49.976;20.038;2023-05-07T03:24:30;19.85;;;11.93;;
76745;SDS011;65671;49.976;20.038;2023-05-07T03:26:56;20.73;;;10.73;;
76745;SDS011;65671;49.976;20.038;2023-05-07T03:29:22;20.58;;;10.93;;
76745;SDS011;65671;49.976;20.038;2023-05-07T03:31:48;16.55;;;9.57;;
76745;SDS011;65671;49.976;20.038;2023-05-07T03:34:14;16.58;;;9.85;;
76745;SDS011;65671;49.976;20.038;2023-05-07T03:36:42;19.20;;;10.00;;
76745;SDS011;65671;49.976;20.038;2023-05-07T03:39:08;16.17;;;10.30;;
76745;SDS011;65671;49.976;20.038;2023-05-07T03:41:33;15.18;;;9.18;;
76745;SDS011;65671;49.976;20.038;2023-05-07T03:43:59;14.63;;;9.45;;
76745;SDS011;65671;49.976;20.038;2023-05-07T03:46:24;14.65;;;8.95;;
76745;SDS011;65671;49.976;20.038;2023-05-07T03:48:51;15.40;;;8.80;;
76745;SDS011;65671;49.976;20.038;2023-05-07T03:51:17;14.18;;;7.53;;
76745;SDS011;65671;49.976;20.038;2023-05-07T03:53:43;11.35;;;7.38;;
76745;SDS011;65671;49.976;20.038;2023-05-07T03:56:08;11.90;;;8.05;;
76745;SDS011;65671;49.976;20.038;2023-05-07T03:58:34;12.40;;;7.95;;
76745;SDS011;65671;49.976;20.038;2023-05-07T04:01:00;11.48;;;6.80;;
76745;SDS011;65671;49.976;20.038;2023-05-07T04:03:26;12.80;;;6.78;;
76745;SDS011;65671;49.976;20.038;2023-05-07T04:05:51;10.32;;;6.45;;
76745;SDS011;65671;49.976;20.038;2023-05-07T04:08:17;10.02;;;6.00;;
76745;SDS011;65671;49.976;20.038;2023-05-07T04:10:42;8.20;;;5.78;;
76745;SDS011;65671;49.976;20.038;2023-05-07T04:13:08;7.82;;;5.53;;
76745;SDS011;65671;49.976;20.038;2023-05-07T04:15:34;9.02;;;6.05;;
76745;SDS011;65671;49.976;20.038;2023-05-07T04:18:01;8.63;;;5.68;;
76745;SDS011;65671;49.976;20.038;2023-05-07T04:20:26;9.10;;;5.70;;
76745;SDS011;65671;49.976;20.038;2023-05-07T04:22:52;9.88;;;5.78;;
76745;SDS011;65671;49.976;20.038;2023-05-07T04:25:17;7.03;;;5.00;;
76745;SDS011;65671;49.976;20.038;2023-05-07T04:27:43;7.35;;;5.22;;
76745;SDS011;65671;49.976;20.038;2023-05-07T04:30:09;8.75;;;5.72;;
76745;SDS011;65671;49.976;20.038;2023-05-07T04:32:35;14.10;;;9.68;;
76745;SDS011;65671;49.976;20.038;2023-05-07T04:35:02;17.55;;;10.73;;
76745;SDS011;65671;49.976;20.038;2023-05-07T04:37:28;13.80;;;8.93;;
76745;SDS011;65671;49.976;20.038;2023-05-07T04:39:53;15.00;;;9.15;;
76745;SDS011;65671;49.976;20.038;2023-05-07T04:42:19;14.18;;;9.05;;
76745;SDS011;65671;49.976;20.038;2023-05-07T04:44:44;10.05;;;7.57;;
76745;SDS011;65671;49.976;20.038;2023-05-07T04:47:10;10.00;;;7.75;;
76745;SDS011;65671;49.976;20.038;2023-05-07T04:49:37;10.15;;;8.20;;
76745;SDS011;65671;49.976;20.038;2023-05-07T04:52:03;12.32;;;8.48;;
76745;SDS011;65671;49.976;20.038;2023-05-07T04:54:29;14.70;;;7.75;;
76745;SDS011;65671;49.976;20.038;2023-05-07T04:56:55;12.13;;;7.82;;
76745;SDS011;65671;49.976;20.038;2023-05-07T04:59:21;15.70;;;11.02;;
76745;SDS011;65671;49.976;20.038;2023-05-07T05:01:47;15.00;;;10.60;;
76745;SDS011;65671;49.976;20.038;2023-05-07T05:04:12;15.38;;;9.82;;
76745;SDS011;65671;49.976;20.038;2023-05-07T05:06:38;15.70;;;10.20;;
76745;SDS011;65671;49.976;20.038;2023-05-07T05:09:04;15.23;;;10.23;;
76745;SDS011;65671;49.976;20.038;2023-05-07T05:11:30;15.98;;;10.05;;
76745;SDS011;65671;49.976;20.038;2023-05-07T05:13:56;14.50;;;9.10;;
76745;SDS011;65671;49.976;20.038;2023-05-07T05:16:21;11.70;;;8.60;;
76745;SDS011;65671;49.976;20.038;2023-05-07T05:18:47;13.70;;;9.10;;
76745;SDS011;65671;49.976;20.038;2023-05-07T05:21:12;15.20;;;10.07;;
76745;SDS011;65671;49.976;20.038;2023-05-07T05:23:38;15.57;;;9.48;;
76745;SDS011;65671;49.976;20.038;2023-05-07T05:26:04;11.32;;;8.35;;
76745;SDS011;65671;49.976;20.038;2023-05-07T05:28:30;12.18;;;7.70;;
76745;SDS011;65671;49.976;20.038;2023-05-07T05:30:55;8.52;;;6.43;;
76745;SDS011;65671;49.976;20.038;2023-05-07T05:33:21;7.57;;;5.28;;
76745;SDS011;65671;49.976;20.038;2023-05-07T05:35:46;10.85;;;5.88;;
76745;SDS011;65671;49.976;20.038;2023-05-07T05:38:12;7.70;;;5.32;;
76745;SDS011;65671;49.976;20.038;2023-05-07T05:40:38;8.60;;;6.57;;
76745;SDS011;65671;49.976;20.038;2023-05-07T05:43:03;9.75;;;5.78;;
76745;SDS011;65671;49.976;20.038;2023-05-07T05:45:29;7.63;;;5.80;;
76745;SDS011;65671;49.976;20.038;2023-05-07T05:47:55;11.00;;;6.15;;
76745;SDS011;65671;49.976;20.038;2023-05-07T05:50:21;9.40;;;6.03;;
76745;SDS011;65671;49.976;20.038;2023-05-07T05:52:47;10.43;;;6.93;;
76745;SDS011;65671;49.976;20.038;2023-05-07T05:55:13;12.57;;;8.20;;
76745;SDS011;65671;49.976;20.038;2023-05-07T05:57:38;12.35;;;8.75;;
76745;SDS011;65671;49.976;20.038;2023-05-07T06:00:04;12.95;;;9.07;;
76745;SDS011;65671;49.976;20.038;2023-05-07T06:02:31;15.30;;;10.18;;
76745;SDS011;65671;49.976;20.038;2023-05-07T06:04:57;17.92;;;10.73;;
76745;SDS011;65671;49.976;20.038;2023-05-07T06:07:22;15.77;;;9.50;;
76745;SDS011;65671;49.976;20.038;2023-05-07T06:09:48;15.75;;;10.05;;
76745;SDS011;65671;49.976;20.038;2023-05-07T06:12:13;15.55;;;10.68;;
76745;SDS011;65671;49.976;20.038;2023-05-07T06:14:39;10.63;;;8.20;;
76745;SDS011;65671;49.976;20.038;2023-05-07T06:17:05;8.27;;;6.13;;
76745;SDS011;65671;49.976;20.038;2023-05-07T06:19:32;8.45;;;6.03;;
76745;SDS011;65671;49.976;20.038;2023-05-07T06:21:57;7.25;;;5.35;;
76745;SDS011;65671;49.976;20.038;2023-05-07T06:24:23;10.63;;;5.47;;
76745;SDS011;65671;49.976;20.038;2023-05-07T06:26:49;6.93;;;4.05;;
76745;SDS011;65671;49.976;20.038;2023-05-07T06:29:15;5.03;;;3.58;;
76745;SDS011;65671;49.976;20.038;2023-05-07T06:31:40;6.97;;;3.72;;
76745;SDS011;65671;49.976;20.038;2023-05-07T06:34:06;6.60;;;3.47;;
76745;SDS011;65671;49.976;20.038;2023-05-07T06:36:32;6.28;;;4.05;;
76745;SDS011;65671;49.976;20.038;2023-05-07T06:38:59;6.63;;;4.20;;
76745;SDS011;65671;49.976;20.038;2023-05-07T06:41:25;6.13;;;3.95;;
76745;SDS011;65671;49.976;20.038;2023-05-07T06:43:50;5.20;;;3.20;;
76745;SDS011;65671;49.976;20.038;2023-05-07T06:46:16;5.07;;;3.40;;
76745;SDS011;65671;49.976;20.038;2023-05-07T06:48:41;9.73;;;4.28;;
76745;SDS011;65671;49.976;20.038;2023-05-07T06:51:07;5.45;;;3.13;;
76745;SDS011;65671;49.976;20.038;2023-05-07T06:53:32;7.10;;;4.22;;
76745;SDS011;65671;49.976;20.038;2023-05-07T06:55:59;7.70;;;4.25;;
76745;SDS011;65671;49.976;20.038;2023-05-07T06:58:25;5.85;;;3.95;;
76745;SDS011;65671;49.976;20.038;2023-05-07T07:00:50;5.40;;;3.30;;
76745;SDS011;65671;49.976;20.038;2023-05-07T07:03:15;5.32;;;3.42;;
76745;SDS011;65671;49.976;20.038;2023-05-07T07:05:41;5.82;;;3.80;;
76745;SDS011;65671;49.976;20.038;2023-05-07T07:08:07;5.65;;;3.63;;
76745;SDS011;65671;49.976;20.038;2023-05-07T07:10:33;4.93;;;3.47;;
76745;SDS011;65671;49.976;20.038;2023-05-07T07:12:58;4.90;;;3.97;;
76745;SDS011;65671;49.976;20.038;2023-05-07T07:15:24;4.75;;;3.60;;
76745;SDS011;65671;49.976;20.038;2023-05-07T07:17:51;6.03;;;3.50;;
76745;SDS011;65671;49.976;20.038;2023-05-07T07:20:17;6.78;;;3.75;;
76745;SDS011;65671;49.976;20.038;2023-05-07T07:22:42;34.85;;;5.88;;
76745;SDS011;65671;49.976;20.038;2023-05-07T07:25:08;5.72;;;3.50;;
76745;SDS011;65671;49.976;20.038;2023-05-07T07:27:35;3.83;;;3.30;;
76745;SDS011;65671;49.976;20.038;2023-05-07T07:30:01;4.43;;;3.13;;
76745;SDS011;65671;49.976;20.038;2023-05-07T07:32:26;4.82;;;3.05;;
76745;SDS011;65671;49.976;20.038;2023-05-07T07:34:52;3.97;;;2.85;;
76745;SDS011;65671;49.976;20.038;2023-05-07T07:37:17;4.05;;;3.10;;
76745;SDS011;65671;49.976;20.038;2023-05-07T07:39:43;5.88;;;3.60;;
76745;SDS011;65671;49.976;20.038;2023-05-07T07:42:09;6.38;;;4.25;;
76745;SDS011;65671;49.976;20.038;2023-05-07T07:44:34;5.10;;;3.78;;
76745;SDS011;65671;49.976;20.038;2023-05-07T07:47:00;5.28;;;4.25;;
76745;SDS011;65671;49.976;20.038;2023-05-07T07:49:26;8.10;;;5.00;;
76745;SDS011;65671;49.976;20.038;2023-05-07T07:51:52;7.82;;;6.20;;
76745;SDS011;65671;49.976;20.038;2023-05-07T07:54:18;9.75;;;6.93;;
76745;SDS011;65671;49.976;20.038;2023-05-07T07:56:43;8.05;;;6.75;;
76745;SDS011;65671;49.976;20.038;2023-05-07T07:59:09;10.93;;;7.03;;
76745;SDS011;65671;49.976;20.038;2023-05-07T08:01:34;7.72;;;5.03;;
76745;SDS011;65671;49.976;20.038;2023-05-07T08:04:00;5.80;;;4.80;;
76745;SDS011;65671;49.976;20.038;2023-05-07T08:06:28;5.85;;;3.67;;
76745;SDS011;65671;49.976;20.038;2023-05-07T08:08:53;5.53;;;4.20;;
76745;SDS011;65671;49.976;20.038;2023-05-07T08:11:19;8.13;;;4.40;;
76745;SDS011;65671;49.976;20.038;2023-05-07T08:13:46;5.82;;;4.47;;
76745;SDS011;65671;49.976;20.038;2023-05-07T08:16:12;5.47;;;4.22;;
76745;SDS011;65671;49.976;20.038;2023-05-07T08:18:37;8.82;;;4.75;;
76745;SDS011;65671;49.976;20.038;2023-05-07T08:21:03;8.07;;;4.90;;
76745;SDS011;65671;49.976;20.038;2023-05-07T08:23:29;7.82;;;5.75;;
76745;SDS011;65671;49.976;20.038;2023-05-07T08:25:55;8.65;;;6.18;;
76745;SDS011;65671;49.976;20.038;2023-05-07T08:28:21;7.80;;;6.38;;
76745;SDS011;65671;49.976;20.038;2023-05-07T08:30:46;11.93;;;6.30;;
76745;SDS011;65671;49.976;20.038;2023-05-07T08:33:12;9.23;;;7.20;;
76745;SDS011;65671;49.976;20.038;2023-05-07T08:35:38;9.88;;;7.03;;
76745;SDS011;65671;49.976;20.038;2023-05-07T08:38:04;9.20;;;7.15;;
76745;SDS011;65671;49.976;20.038;2023-05-07T08:40:30;8.68;;;5.57;;
76745;SDS011;65671;49.976;20.038;2023-05-07T08:43:06;9.45;;;5.03;;
76745;SDS011;65671;49.976;20.038;2023-05-07T08:45:32;7.20;;;5.25;;
76745;SDS011;65671;49.976;20.038;2023-05-07T08:47:59;7.93;;;5.95;;
76745;SDS011;65671;49.976;20.038;2023-05-07T08:50:27;7.18;;;5.47;;
76745;SDS011;65671;49.976;20.038;2023-05-07T08:52:53;9.02;;;5.18;;
76745;SDS011;65671;49.976;20.038;2023-05-07T08:55:19;6.28;;;4.53;;
76745;SDS011;65671;49.976;20.038;2023-05-07T08:57:45;6.10;;;4.07;;
76745;SDS011;65671;49.976;20.038;2023-05-07T09:00:12;6.20;;;4.35;;
76745;SDS011;65671;49.976;20.038;2023-05-07T09:02:38;5.90;;;4.60;;
76745;SDS011;65671;49.976;20.038;2023-05-07T09:05:04;7.60;;;4.35;;
76745;SDS011;65671;49.976;20.038;2023-05-07T09:07:30;11.98;;;6.70;;
76745;SDS011;65671;49.976;20.038;2023-05-07T09:09:56;11.23;;;7.03;;
76745;SDS011;65671;49.976;20.038;2023-05-07T09:12:23;7.15;;;5.53;;
76745;SDS011;65671;49.976;20.038;2023-05-07T09:14:49;8.15;;;6.10;;
76745;SDS011;65671;49.976;20.038;2023-05-07T09:17:15;9.75;;;7.28;;
76745;SDS011;65671;49.976;20.038;2023-05-07T09:19:43;13.85;;;8.15;;
76745;SDS011;65671;49.976;20.038;2023-05-07T09:22:10;12.30;;;7.47;;
76745;SDS011;65671;49.976;20.038;2023-05-07T09:24:36;11.88;;;8.20;;
76745;SDS011;65671;49.976;20.038;2023-05-07T09:27:06;11.40;;;8.98;;
76745;SDS011;65671;49.976;20.038;2023-05-07T09:29:33;13.63;;;9.35;;
76745;SDS011;65671;49.976;20.038;2023-05-07T09:32:01;10.43;;;8.73;;
76745;SDS011;65671;49.976;20.038;2023-05-07T09:34:28;10.68;;;7.55;;
76745;SDS011;65671;49.976;20.038;2023-05-07T09:36:54;8.27;;;6.32;;
76745;SDS011;65671;49.976;20.038;2023-05-07T09:39:21;8.18;;;5.90;;
76745;SDS011;65671;49.976;20.038;2023-05-07T09:41:48;10.52;;;6.90;;
76745;SDS011;65671;49.976;20.038;2023-05-07T09:44:15;8.18;;;5.50;;
76745;SDS011;65671;49.976;20.038;2023-05-07T09:46:42;9.38;;;5.95;;
76745;SDS011;65671;49.976;20.038;2023-05-07T09:49:11;8.23;;;5.72;;
76745;SDS011;65671;49.976;20.038;2023-05-07T09:51:48;7.78;;;5.47;;
76745;SDS011;65671;49.976;20.038;2023-05-07T09:54:15;9.70;;;6.63;;
76745;SDS011;65671;49.976;20.038;2023-05-07T09:56:42;9.00;;;7.93;;
76745;SDS011;65671;49.976;20.038;2023-05-07T09:59:10;9.93;;;6.97;;
76745;SDS011;65671;49.976;20.038;2023-05-07T10:01:39;8.07;;;6.00;;
76745;SDS011;65671;49.976;20.038;2023-05-07T10:04:06;8.68;;;6.22;;
76745;SDS011;65671;49.976;20.038;2023-05-07T10:06:34;11.73;;;8.45;;
76745;SDS011;65671;49.976;20.038;2023-05-07T10:09:01;11.43;;;8.02;;
76745;SDS011;65671;49.976;20.038;2023-05-07T10:11:28;9.68;;;6.07;;
76745;SDS011;65671;49.976;20.038;2023-05-07T10:13:54;10.48;;;7.18;;
76745;SDS011;65671;49.976;20.038;2023-05-07T10:16:23;9.95;;;6.47;;
76745;SDS011;65671;49.976;20.038;2023-05-07T10:18:50;8.55;;;6.70;;
76745;SDS011;65671;49.976;20.038;2023-05-07T10:21:17;8.07;;;6.15;;
76745;SDS011;65671;49.976;20.038;2023-05-07T10:23:53;7.68;;;5.38;;
76745;SDS011;65671;49.976;20.038;2023-05-07T10:26:31;7.28;;;5.72;;
76745;SDS011;65671;49.976;20.038;2023-05-07T10:28:59;6.97;;;5.18;;
76745;SDS011;65671;49.976;20.038;2023-05-07T10:34:02;6.88;;;4.45;;
76745;SDS011;65671;49.976;20.038;2023-05-07T10:36:34;6.45;;;5.45;;
76745;SDS011;65671;49.976;20.038;2023-05-07T10:39:00;6.72;;;4.47;;
76745;SDS011;65671;49.976;20.038;2023-05-07T10:41:27;7.00;;;5.20;;
76745;SDS011;65671;49.976;20.038;2023-05-07T10:43:53;6.45;;;5.00;;
76745;SDS011;65671;49.976;20.038;2023-05-07T10:46:19;7.20;;;5.05;;
76745;SDS011;65671;49.976;20.038;2023-05-07T10:51:28;8.20;;;4.53;;
76745;SDS011;65671;49.976;20.038;2023-05-07T10:56:36;5.75;;;3.65;;
76745;SDS011;65671;49.976;20.038;2023-05-07T11:01:54;10.40;;;3.88;;
76745;SDS011;65671;49.976;20.038;2023-05-07T11:04:22;7.20;;;4.70;;
76745;SDS011;65671;49.976;20.038;2023-05-07T11:15:08;7.15;;;4.93;;
76745;SDS011;65671;49.976;20.038;2023-05-07T11:17:35;7.97;;;5.03;;
76745;SDS011;65671;49.976;20.038;2023-05-07T11:20:18;8.70;;;6.28;;
76745;SDS011;65671;49.976;20.038;2023-05-07T11:22:44;6.78;;;4.93;;
76745;SDS011;65671;49.976;20.038;2023-05-07T11:25:09;8.07;;;5.97;;
76745;SDS011;65671;49.976;20.038;2023-05-07T11:27:42;8.45;;;6.47;;
76745;SDS011;65671;49.976;20.038;2023-05-07T11:30:08;10.93;;;6.22;;
76745;SDS011;65671;49.976;20.038;2023-05-07T11:32:35;8.65;;;5.80;;
76745;SDS011;65671;49.976;20.038;2023-05-07T11:35:00;8.48;;;5.32;;
76745;SDS011;65671;49.976;20.038;2023-05-07T11:37:26;10.25;;;5.95;;
76745;SDS011;65671;49.976;20.038;2023-05-07T11:40:04;7.55;;;5.78;;
76745;SDS011;65671;49.976;20.038;2023-05-07T11:42:32;9.80;;;5.30;;
76745;SDS011;65671;49.976;20.038;2023-05-07T11:45:02;7.07;;;5.25;;
76745;SDS011;65671;49.976;20.038;2023-05-07T11:47:31;8.05;;;5.20;;
76745;SDS011;65671;49.976;20.038;2023-05-07T11:49:57;8.57;;;5.53;;
76745;SDS011;65671;49.976;20.038;2023-05-07T11:55:01;7.10;;;5.50;;
76745;SDS011;65671;49.976;20.038;2023-05-07T11:57:29;6.82;;;5.18;;
76745;SDS011;65671;49.976;20.038;2023-05-07T11:59:55;7.65;;;4.93;;
76745;SDS011;65671;49.976;20.038;2023-05-07T12:02:25;6.03;;;4.85;;
76745;SDS011;65671;49.976;20.038;2023-05-07T12:04:51;7.00;;;5.05;;
76745;SDS011;65671;49.976;20.038;2023-05-07T12:07:17;6.20;;;4.75;;
76745;SDS011;65671;49.976;20.038;2023-05-07T12:09:44;6.82;;;4.40;;
76745;SDS011;65671;49.976;20.038;2023-05-07T12:12:11;6.78;;;4.32;;
76745;SDS011;65671;49.976;20.038;2023-05-07T12:14:38;6.47;;;4.18;;
76745;SDS011;65671;49.976;20.038;2023-05-07T12:17:05;5.20;;;4.32;;
76745;SDS011;65671;49.976;20.038;2023-05-07T12:19:32;6.40;;;4.35;;
76745;SDS011;65671;49.976;20.038;2023-05-07T12:21:59;4.90;;;3.83;;
76745;SDS011;65671;49.976;20.038;2023-05-07T12:24:25;4.82;;;3.72;;
76745;SDS011;65671;49.976;20.038;2023-05-07T12:26:51;4.65;;;3.88;;
76745;SDS011;65671;49.976;20.038;2023-05-07T12:29:16;4.80;;;3.90;;
76745;SDS011;65671;49.976;20.038;2023-05-07T12:31:42;5.15;;;4.00;;
76745;SDS011;65671;49.976;20.038;2023-05-07T12:34:10;5.82;;;4.07;;
76745;SDS011;65671;49.976;20.038;2023-05-07T12:36:37;4.88;;;3.53;;
76745;SDS011;65671;49.976;20.038;2023-05-07T12:39:04;5.50;;;3.92;;
76745;SDS011;65671;49.976;20.038;2023-05-07T12:41:34;5.40;;;3.47;;
76745;SDS011;65671;49.976;20.038;2023-05-07T12:44:03;5.30;;;3.60;;
76745;SDS011;65671;49.976;20.038;2023-05-07T12:46:30;5.43;;;3.63;;
76745;SDS011;65671;49.976;20.038;2023-05-07T12:48:56;5.22;;;3.72;;
76745;SDS011;65671;49.976;20.038;2023-05-07T12:51:21;4.18;;;3.20;;
76745;SDS011;65671;49.976;20.038;2023-05-07T12:53:47;5.38;;;4.10;;
76745;SDS011;65671;49.976;20.038;2023-05-07T12:56:12;6.43;;;4.60;;
76745;SDS011;65671;49.976;20.038;2023-05-07T12:58:40;5.00;;;4.13;;
76745;SDS011;65671;49.976;20.038;2023-05-07T13:01:07;4.97;;;3.60;;
76745;SDS011;65671;49.976;20.038;2023-05-07T13:03:35;6.93;;;4.57;;
76745;SDS011;65671;49.976;20.038;2023-05-07T13:06:03;5.07;;;3.42;;
76745;SDS011;65671;49.976;20.038;2023-05-07T13:08:40;5.25;;;4.00;;
76745;SDS011;65671;49.976;20.038;2023-05-07T13:11:08;5.55;;;4.25;;
76745;SDS011;65671;49.976;20.038;2023-05-07T13:13:36;6.45;;;3.95;;
76745;SDS011;65671;49.976;20.038;2023-05-07T13:16:02;5.85;;;3.80;;
76745;SDS011;65671;49.976;20.038;2023-05-07T13:18:30;5.75;;;3.78;;
76745;SDS011;65671;49.976;20.038;2023-05-07T13:20:57;4.38;;;3.40;;
76745;SDS011;65671;49.976;20.038;2023-05-07T13:23:23;5.40;;;4.00;;
76745;SDS011;65671;49.976;20.038;2023-05-07T13:25:50;6.00;;;3.95;;
76745;SDS011;65671;49.976;20.038;2023-05-07T13:28:15;7.22;;;3.92;;
76745;SDS011;65671;49.976;20.038;2023-05-07T13:30:41;7.00;;;4.28;;
76745;SDS011;65671;49.976;20.038;2023-05-07T13:33:07;5.03;;;4.05;;
76745;SDS011;65671;49.976;20.038;2023-05-07T13:35:34;8.15;;;4.00;;
76745;SDS011;65671;49.976;20.038;2023-05-07T13:38:00;6.30;;;4.35;;
76745;SDS011;65671;49.976;20.038;2023-05-07T13:40:25;5.90;;;4.40;;
76745;SDS011;65671;49.976;20.038;2023-05-07T13:42:51;5.28;;;4.03;;
76745;SDS011;65671;49.976;20.038;2023-05-07T13:45:20;5.68;;;3.78;;
76745;SDS011;65671;49.976;20.038;2023-05-07T13:47:46;6.22;;;4.55;;
76745;SDS011;65671;49.976;20.038;2023-05-07T13:50:13;6.47;;;4.57;;
76745;SDS011;65671;49.976;20.038;2023-05-07T13:52:42;6.88;;;4.13;;
76745;SDS011;65671;49.976;20.038;2023-05-07T13:55:11;7.90;;;4.20;;
76745;SDS011;65671;49.976;20.038;2023-05-07T13:57:36;7.32;;;5.45;;
76745;SDS011;65671;49.976;20.038;2023-05-07T14:00:03;6.10;;;4.57;;
76745;SDS011;65671;49.976;20.038;2023-05-07T14:02:30;6.68;;;5.10;;
76745;SDS011;65671;49.976;20.038;2023-05-07T14:04:56;7.07;;;4.75;;
76745;SDS011;65671;49.976;20.038;2023-05-07T14:07:22;7.20;;;4.95;;
76745;SDS011;65671;49.976;20.038;2023-05-07T14:09:47;7.90;;;4.88;;
76745;SDS011;65671;49.976;20.038;2023-05-07T14:12:13;6.38;;;4.63;;
76745;SDS011;65671;49.976;20.038;2023-05-07T14:14:38;6.78;;;4.75;;
76745;SDS011;65671;49.976;20.038;2023-05-07T14:17:04;7.53;;;5.60;;
76745;SDS011;65671;49.976;20.038;2023-05-07T14:19:30;8.00;;;4.90;;
76745;SDS011;65671;49.976;20.038;2023-05-07T14:21:55;6.25;;;4.80;;
76745;SDS011;65671;49.976;20.038;2023-05-07T14:24:21;6.25;;;4.93;;
76745;SDS011;65671;49.976;20.038;2023-05-07T14:26:47;7.50;;;5.35;;
76745;SDS011;65671;49.976;20.038;2023-05-07T14:29:12;9.02;;;5.75;;
76745;SDS011;65671;49.976;20.038;2023-05-07T14:31:38;6.32;;;4.65;;
76745;SDS011;65671;49.976;20.038;2023-05-07T14:34:04;8.82;;;5.47;;
76745;SDS011;65671;49.976;20.038;2023-05-07T14:36:29;7.38;;;5.75;;
76745;SDS011;65671;49.976;20.038;2023-05-07T14:38:57;7.57;;;5.32;;
76745;SDS011;65671;49.976;20.038;2023-05-07T14:41:24;6.18;;;5.03;;
76745;SDS011;65671;49.976;20.038;2023-05-07T14:43:50;9.95;;;6.80;;
76745;SDS011;65671;49.976;20.038;2023-05-07T14:46:19;8.18;;;5.25;;